Time;durP1;ratioP1;P1;durP2;ratioP2;P2;SDS_P1;SDS_P2;PMS_P1;PMS_P2;Temp;Humidity;BMP_temperature;BMP_pressure;BME280_temperature;BME280_humidity;BME280_pressure;Samples;Min_cycle;Max_cycle;Signal;HPM_P1;HPM_P2
2021/01/19 00:02:07;;;;;;;421.50;158.40;;;-6.60;99.90;;;;;;4972705;28;20026;-79
2021/01/19 00:04:32;;;;;;;381.50;138.07;;;-6.60;99.90;;;;;;4985176;28;20042;-80
2021/01/19 00:06:58;;;;;;;273.27;105.30;;;-6.50;99.90;;;;;;4972613;28;20018;-81
2021/01/19 00:09:24;;;;;;;172.73;68.37;;;-6.50;99.90;;;;;;4973702;28;20105;-80
2021/01/19 00:11:49;;;;;;;184.00;71.30;;;-6.50;99.90;;;;;;4972843;28;20078;-80
2021/01/19 00:14:15;;;;;;;211.17;82.10;;;-6.40;99.90;;;;;;4972759;28;20027;-80
2021/01/19 00:16:41;;;;;;;181.23;70.10;;;-6.40;99.90;;;;;;4985723;28;20054;-80
2021/01/19 00:19:06;;;;;;;206.03;73.67;;;-6.40;99.90;;;;;;4993025;28;20030;-79
2021/01/19 00:21:32;;;;;;;206.40;81.87;;;-6.40;99.90;;;;;;4993152;28;20027;-80
2021/01/19 00:23:58;;;;;;;270.07;102.33;;;-6.40;99.90;;;;;;4991722;28;20477;-80
2021/01/19 00:26:23;;;;;;;173.13;70.10;;;-6.40;99.90;;;;;;4991883;28;20031;-79
2021/01/19 00:28:49;;;;;;;143.93;60.17;;;-6.40;99.90;;;;;;4992151;28;20498;-80
2021/01/19 00:31:14;;;;;;;191.77;73.47;;;-6.30;99.90;;;;;;5008379;28;20411;-80
2021/01/19 00:33:40;;;;;;;146.23;56.40;;;-6.30;99.90;;;;;;4991098;28;20042;-79
2021/01/19 00:36:06;;;;;;;332.27;129.80;;;-6.30;99.90;;;;;;4991923;28;20018;-80
2021/01/19 00:38:31;;;;;;;304.13;114.27;;;-6.30;99.90;;;;;;4974727;28;20039;-80
2021/01/19 00:40:57;;;;;;;305.93;115.90;;;-6.30;99.90;;;;;;4973645;28;20038;-79
2021/01/19 00:43:23;;;;;;;153.73;62.57;;;-6.30;99.90;;;;;;4972223;28;20389;-79
2021/01/19 00:45:48;;;;;;;176.70;67.03;;;-6.20;99.90;;;;;;4973636;28;20031;-79
2021/01/19 00:48:14;;;;;;;154.27;61.50;;;-6.20;99.90;;;;;;4972473;28;20026;-80
2021/01/19 00:50:40;;;;;;;199.27;76.80;;;-6.20;99.90;;;;;;4972199;28;20388;-80
2021/01/19 00:53:05;;;;;;;297.70;120.27;;;-6.20;99.90;;;;;;4988333;28;20480;-80
2021/01/19 00:55:31;;;;;;;192.03;74.37;;;-6.20;99.90;;;;;;4972203;28;20050;-80
2021/01/19 00:57:56;;;;;;;206.93;72.47;;;-6.20;99.90;;;;;;4973178;28;20046;-80
2021/01/19 01:00:23;;;;;;;223.67;86.43;;;-6.10;99.90;;;;;;4977470;28;20461;-80
2021/01/19 01:02:48;;;;;;;170.23;61.50;;;-6.10;99.90;;;;;;4975575;28;20023;-79
2021/01/19 01:05:15;;;;;;;189.20;76.50;;;-6.10;99.90;;;;;;4976789;28;20102;-79
2021/01/19 01:07:42;;;;;;;238.77;85.90;;;-6.10;99.90;;;;;;4980753;28;20030;-80
2021/01/19 01:10:10;;;;;;;199.17;76.43;;;-6.00;99.90;;;;;;4974582;28;20488;-80
2021/01/19 01:12:35;;;;;;;191.27;77.87;;;-6.00;99.90;;;;;;4976693;28;20031;-80
2021/01/19 01:15:03;;;;;;;221.40;86.73;;;-6.00;99.90;;;;;;4975323;28;20082;-80
2021/01/19 01:17:29;;;;;;;177.70;70.20;;;-6.00;99.90;;;;;;4975207;28;20627;-80
2021/01/19 01:19:55;;;;;;;158.13;66.47;;;-5.90;99.90;;;;;;4975277;28;20054;-80
2021/01/19 01:22:20;;;;;;;172.80;66.37;;;-5.90;99.90;;;;;;4974999;28;20018;-80
2021/01/19 01:24:46;;;;;;;207.30;80.00;;;-5.90;99.90;;;;;;4975219;28;20018;-80
2021/01/19 01:27:11;;;;;;;162.13;62.47;;;-5.90;99.90;;;;;;4975227;28;20515;-80
2021/01/19 01:29:37;;;;;;;171.63;61.53;;;-5.90;99.90;;;;;;4976361;28;20389;-80
2021/01/19 01:32:03;;;;;;;162.07;61.23;;;-5.80;99.90;;;;;;4975019;28;20062;-81
2021/01/19 01:34:28;;;;;;;161.03;65.43;;;-5.90;99.90;;;;;;4974954;28;20034;-80
2021/01/19 01:36:54;;;;;;;136.20;58.07;;;-5.90;99.90;;;;;;4977500;28;20039;-80
2021/01/19 01:39:20;;;;;;;151.50;60.30;;;-5.80;99.90;;;;;;4994240;28;20468;-80
2021/01/19 01:41:45;;;;;;;147.07;63.33;;;-5.80;99.90;;;;;;5010497;28;20025;-81
2021/01/19 01:44:11;;;;;;;160.03;63.93;;;-5.80;99.90;;;;;;4994408;28;20121;-80
2021/01/19 01:46:37;;;;;;;144.93;58.90;;;-5.70;99.90;;;;;;4994497;28;20114;-80
2021/01/19 01:49:04;;;;;;;167.67;63.97;;;-5.70;99.90;;;;;;4994460;28;20076;-80
2021/01/19 01:51:30;;;;;;;126.20;55.13;;;-5.70;99.90;;;;;;4995674;28;20404;-80
2021/01/19 01:53:57;;;;;;;147.43;63.63;;;-5.70;99.90;;;;;;4994313;28;20502;-80
2021/01/19 01:56:24;;;;;;;150.07;59.73;;;-5.60;99.90;;;;;;4983466;28;20496;-80
2021/01/19 01:58:53;;;;;;;151.87;56.37;;;-5.60;99.90;;;;;;4975755;28;20039;-80
2021/01/19 02:01:19;;;;;;;154.80;65.70;;;-5.60;99.90;;;;;;4974749;28;20015;-80
2021/01/19 02:03:45;;;;;;;152.03;59.33;;;-5.60;99.90;;;;;;4990736;28;20358;-80
2021/01/19 02:06:15;;;;;;;141.77;54.27;;;-5.60;99.90;;;;;;4975966;28;20023;-80
2021/01/19 02:09:03;;;;;;;129.50;54.50;;;-5.50;99.90;;;;;;4991422;28;20214;-80
2021/01/19 02:11:54;;;;;;;125.40;51.33;;;-5.50;99.90;;;;;;4993930;28;20029;-81
2021/01/19 02:14:25;;;;;;;115.97;49.17;;;-5.50;99.90;;;;;;4995251;28;20026;-80
2021/01/19 02:17:07;;;;;;;130.07;50.70;;;-5.50;99.90;;;;;;4993489;28;20411;-80
2021/01/19 02:20:33;;;;;;;131.33;51.40;;;-5.40;99.90;;;;;;5010229;28;20622;-80
2021/01/19 02:23:11;;;;;;;130.97;49.57;;;-5.40;99.90;;;;;;4956899;28;20034;-80
2021/01/19 02:26:02;;;;;;;114.93;50.33;;;-5.40;99.90;;;;;;4988998;28;20042;-80
2021/01/19 02:28:44;;;;;;;123.43;50.33;;;-5.30;99.90;;;;;;4993325;28;20101;-80
2021/01/19 02:31:29;;;;;;;120.82;49.85;;;-5.30;99.90;;;;;;4994723;28;20440;-79
2021/01/19 02:34:15;;;;;;;142.70;51.47;;;-5.30;99.90;;;;;;4993363;28;20030;-80
2021/01/19 02:37:11;;;;;;;136.23;51.83;;;-5.30;99.90;;;;;;4985211;28;20023;-80
2021/01/19 02:39:36;;;;;;;125.70;51.20;;;-5.20;99.90;;;;;;4974102;28;20038;-80
2021/01/19 02:42:08;;;;;;;128.57;53.03;;;-5.30;99.90;;;;;;4975316;28;20376;-81
2021/01/19 02:44:37;;;;;;;122.07;51.70;;;-5.20;99.90;;;;;;4974028;28;20069;-80
2021/01/19 02:47:04;;;;;;;130.93;53.13;;;-5.20;99.90;;;;;;4975254;28;20110;-81
2021/01/19 02:49:30;;;;;;;114.87;50.87;;;-5.20;99.90;;;;;;4973831;28;20023;-80
2021/01/19 02:51:58;;;;;;;139.53;53.50;;;-5.20;99.90;;;;;;4973571;28;20366;-80
2021/01/19 02:54:24;;;;;;;127.13;54.43;;;-5.20;99.90;;;;;;4973727;28;20030;-80
2021/01/19 02:57:20;;;;;;;135.17;51.77;;;-5.20;99.90;;;;;;4974794;28;20077;-80
2021/01/19 02:59:51;;;;;;;133.53;52.20;;;-5.10;99.90;;;;;;4974062;28;20030;-80
2021/01/19 03:02:22;;;;;;;116.97;52.83;;;-5.10;99.90;;;;;;4973435;28;20412;-80
2021/01/19 03:04:51;;;;;;;134.00;55.40;;;-5.00;99.90;;;;;;4973314;28;20055;-80
2021/01/19 03:07:19;;;;;;;133.30;56.47;;;-5.00;99.90;;;;;;5003695;28;20041;-81
2021/01/19 03:09:48;;;;;;;143.13;54.57;;;-5.00;99.90;;;;;;4994237;28;20472;-80
2021/01/19 03:12:15;;;;;;;119.13;52.77;;;-5.00;99.90;;;;;;4993869;28;20034;-80
2021/01/19 03:14:41;;;;;;;117.50;51.73;;;-4.90;99.90;;;;;;4992299;28;20033;-80
2021/01/19 03:17:09;;;;;;;124.73;54.13;;;-4.90;99.90;;;;;;4993723;28;20053;-81
2021/01/19 03:19:38;;;;;;;119.40;51.80;;;-4.90;99.90;;;;;;4993755;28;20026;-81
2021/01/19 03:22:04;;;;;;;107.53;48.90;;;-4.90;99.90;;;;;;4991433;28;20033;-81
2021/01/19 03:24:29;;;;;;;115.67;47.63;;;-4.90;99.90;;;;;;4992361;28;20026;-80
2021/01/19 03:26:55;;;;;;;129.70;49.03;;;-4.80;99.90;;;;;;4992764;28;20116;-81
2021/01/19 03:29:21;;;;;;;114.60;47.50;;;-4.80;99.90;;;;;;4993908;28;20358;-80
2021/01/19 03:31:47;;;;;;;134.37;57.13;;;-4.80;99.90;;;;;;4993592;28;20476;-81
2021/01/19 03:34:12;;;;;;;126.03;51.17;;;-4.80;99.90;;;;;;4991665;28;20464;-80
2021/01/19 03:36:38;;;;;;;138.53;52.80;;;-4.70;99.90;;;;;;4981988;28;20023;-80
2021/01/19 03:39:04;;;;;;;132.70;54.93;;;-4.70;99.90;;;;;;4974089;28;20045;-80
2021/01/19 03:41:30;;;;;;;153.33;62.60;;;-4.70;99.90;;;;;;4972859;28;20114;-81
2021/01/19 03:43:56;;;;;;;119.10;52.13;;;-4.70;99.90;;;;;;4973125;28;20059;-80
2021/01/19 03:46:21;;;;;;;150.50;61.67;;;-4.70;99.90;;;;;;4972844;28;20456;-80
2021/01/19 03:48:47;;;;;;;154.63;57.00;;;-4.60;99.90;;;;;;4974337;28;20094;-80
2021/01/19 03:51:13;;;;;;;111.53;46.97;;;-4.60;99.90;;;;;;4974127;28;20114;-81
2021/01/19 03:53:38;;;;;;;117.65;47.05;;;-4.60;99.90;;;;;;4973982;28;20366;-80
2021/01/19 03:56:04;;;;;;;113.23;45.90;;;-4.50;99.90;;;;;;4973989;28;20472;-80
2021/01/19 03:58:30;;;;;;;139.55;56.75;;;-4.50;99.90;;;;;;4971987;28;20045;-80
2021/01/19 04:00:56;;;;;;;129.95;53.50;;;-4.50;99.90;;;;;;4974223;28;20027;-81
2021/01/19 04:03:21;;;;;;;109.17;46.17;;;-4.40;99.90;;;;;;4973804;28;20393;-80
2021/01/19 04:05:47;;;;;;;112.28;48.78;;;-4.40;99.90;;;;;;4972944;28;20431;-82
2021/01/19 04:08:13;;;;;;;96.10;45.15;;;-4.40;99.90;;;;;;4974384;28;20451;-81
2021/01/19 04:10:38;;;;;;;109.47;49.30;;;-4.40;99.90;;;;;;4990049;28;20031;-81
2021/01/19 04:13:04;;;;;;;117.40;51.70;;;-4.30;99.90;;;;;;4993249;28;20146;-80
2021/01/19 04:15:30;;;;;;;113.30;49.50;;;-4.30;99.90;;;;;;4992918;28;20038;-80
2021/01/19 04:17:56;;;;;;;114.65;49.88;;;-4.30;99.90;;;;;;4988535;28;20047;-80
2021/01/19 04:20:22;;;;;;;113.75;50.10;;;-4.30;99.90;;;;;;4972501;28;20065;-80
2021/01/19 04:22:47;;;;;;;113.80;48.97;;;-4.20;99.90;;;;;;4972779;28;20544;-80
2021/01/19 04:25:13;;;;;;;94.97;43.35;;;-4.20;99.90;;;;;;4973939;28;20050;-81
2021/01/19 04:27:39;;;;;;;109.38;46.10;;;-4.20;99.90;;;;;;4973728;28;20034;-80
2021/01/19 04:30:08;;;;;;;101.32;43.83;;;-4.20;99.90;;;;;;4973855;28;20054;-80
2021/01/19 04:32:36;;;;;;;118.50;47.50;;;-4.20;99.90;;;;;;4989428;28;20014;-80
2021/01/19 04:35:03;;;;;;;116.15;49.15;;;-4.20;99.90;;;;;;4977607;28;20031;-80
2021/01/19 04:37:29;;;;;;;106.22;45.15;;;-4.20;99.90;;;;;;4975946;28;20027;-81
2021/01/19 04:39:55;;;;;;;121.50;48.92;;;-4.20;99.90;;;;;;4977557;28;20050;-80
2021/01/19 04:42:21;;;;;;;103.85;47.50;;;-4.20;99.90;;;;;;4975929;28;20477;-81
2021/01/19 04:44:50;;;;;;;110.23;47.23;;;-4.20;99.90;;;;;;4975892;28;20022;-80
2021/01/19 04:47:16;;;;;;;105.13;47.30;;;-4.20;99.90;;;;;;4976113;28;20023;-81
2021/01/19 04:49:44;;;;;;;135.15;52.13;;;-4.20;99.90;;;;;;4977121;28;20034;-81
2021/01/19 04:52:14;;;;;;;106.72;44.10;;;-4.10;99.90;;;;;;4977010;28;20027;-81
2021/01/19 04:55:02;;;;;;;126.82;50.35;;;-4.10;99.90;;;;;;5002883;28;20022;-80
2021/01/19 04:57:31;;;;;;;135.55;56.72;;;-4.10;99.90;;;;;;4994699;28;20042;-81
2021/01/19 05:00:17;;;;;;;106.18;44.78;;;-4.10;99.90;;;;;;4995327;28;20027;-80
2021/01/19 05:02:49;;;;;;;119.05;47.65;;;-4.10;99.90;;;;;;4992101;28;20030;-80
2021/01/19 05:05:36;;;;;;;95.28;40.72;;;-4.00;99.90;;;;;;4979371;28;20058;-80
2021/01/19 05:08:02;;;;;;;88.65;41.63;;;-4.00;99.90;;;;;;4980261;28;20039;-81
2021/01/19 05:10:36;;;;;;;93.50;40.20;;;-3.90;99.90;;;;;;4977994;28;20023;-81
2021/01/19 05:13:09;;;;;;;77.93;33.75;;;-3.90;99.90;;;;;;4976638;28;20023;-81
2021/01/19 05:15:44;;;;;;;;;;;-3.80;99.90;;;;;;4977880;28;20055;-81
2021/01/19 05:18:12;;;;;;;73.38;28.88;;;-3.80;99.90;;;;;;4982388;28;19922;-81
2021/01/19 05:21:00;;;;;;;66.53;27.88;;;-3.70;99.90;;;;;;4975554;28;20050;-81
2021/01/19 05:23:27;;;;;;;66.75;28.40;;;-3.70;99.90;;;;;;4975113;28;20100;-81
2021/01/19 05:25:54;;;;;;;77.20;28.65;;;-3.60;99.90;;;;;;4976162;28;20026;-82
2021/01/19 05:28:51;;;;;;;74.30;33.35;;;-3.50;99.90;;;;;;4984094;28;20054;-81
2021/01/19 05:31:23;;;;;;;63.65;28.70;;;-3.50;99.90;;;;;;4988505;28;20623;-81
2021/01/19 05:33:58;;;;;;;65.68;28.00;;;-3.40;99.90;;;;;;4994376;28;20022;-82
2021/01/19 05:36:47;;;;;;;71.20;27.95;;;-3.40;99.90;;;;;;4995618;28;20030;-81
2021/01/19 05:39:18;;;;;;;65.90;28.05;;;-3.40;99.90;;;;;;4992636;28;20530;-81
2021/01/19 05:41:46;;;;;;;136.52;52.65;;;-3.30;99.90;;;;;;4990712;28;20030;-81
2021/01/19 05:44:12;;;;;;;603.65;226.10;;;-3.30;99.90;;;;;;4974456;28;20019;-81
2021/01/19 05:46:44;;;;;;;629.22;229.38;;;-3.20;99.90;;;;;;4976382;28;20038;-81
2021/01/19 05:49:14;;;;;;;573.40;198.00;;;-3.20;99.90;;;;;;4990861;28;20023;-80
2021/01/19 05:51:42;;;;;;;520.80;182.68;;;-3.20;99.90;;;;;;4976152;28;20040;-81
2021/01/19 05:54:11;;;;;;;569.95;200.80;;;-3.20;99.90;;;;;;4977424;28;20380;-81
2021/01/19 05:56:38;;;;;;;783.88;299.52;;;-3.10;99.90;;;;;;4995454;28;20034;-81
2021/01/19 05:59:05;;;;;;;720.22;268.02;;;-3.10;99.90;;;;;;4995089;28;20067;-80
2021/01/19 06:01:34;;;;;;;853.38;327.67;;;-3.10;99.90;;;;;;4994150;28;20026;-81
2021/01/19 06:04:02;;;;;;;612.80;213.68;;;-3.00;99.90;;;;;;4995164;28;20149;-80
2021/01/19 06:06:30;;;;;;;612.53;211.93;;;-3.00;99.90;;;;;;4993987;28;20034;-81
2021/01/19 06:09:04;;;;;;;700.35;260.52;;;-3.00;99.90;;;;;;4989969;28;20042;-81
2021/01/19 06:11:30;;;;;;;644.83;227.07;;;-3.00;99.90;;;;;;4992903;28;20026;-80
2021/01/19 06:13:57;;;;;;;637.15;233.80;;;-3.00;99.90;;;;;;4995006;28;20049;-81
2021/01/19 06:16:25;;;;;;;865.92;323.73;;;-3.00;99.90;;;;;;4996152;28;20037;-82
2021/01/19 06:18:51;;;;;;;785.13;289.85;;;-2.90;99.90;;;;;;4994781;28;20106;-80
2021/01/19 06:21:28;;;;;;;589.45;204.80;;;-2.90;99.90;;;;;;4997066;28;20535;-82
2021/01/19 06:23:53;;;;;;;490.27;160.63;;;-2.90;99.90;;;;;;4994786;28;20107;-81
2021/01/19 06:26:19;;;;;;;409.15;130.30;;;-2.90;99.90;;;;;;5003548;28;20451;-81
2021/01/19 06:28:45;;;;;;;485.20;168.60;;;-2.90;99.90;;;;;;5013063;28;20025;-82
2021/01/19 06:31:15;;;;;;;640.17;232.85;;;-2.80;99.90;;;;;;4998025;28;20035;-81
2021/01/19 06:33:41;;;;;;;498.13;159.48;;;-2.80;99.90;;;;;;4994295;28;20033;-81
2021/01/19 06:36:08;;;;;;;466.38;156.75;;;-2.80;99.90;;;;;;4992232;28;20022;-80
2021/01/19 06:38:34;;;;;;;614.60;222.57;;;-2.80;99.90;;;;;;4992615;28;20041;-80
2021/01/19 06:41:02;;;;;;;432.85;143.52;;;-2.80;99.90;;;;;;4993184;28;20472;-81
2021/01/19 06:43:54;;;;;;;401.67;131.43;;;-2.80;99.90;;;;;;4992650;28;20030;-81
2021/01/19 06:46:20;;;;;;;341.52;113.50;;;-2.70;99.90;;;;;;4989224;28;20027;-81
2021/01/19 06:48:47;;;;;;;270.08;94.25;;;-2.70;99.90;;;;;;4992099;28;20028;-81
2021/01/19 06:51:14;;;;;;;149.70;52.03;;;-2.70;99.90;;;;;;4976445;28;20404;-82
2021/01/19 06:53:46;;;;;;;249.88;81.78;;;-2.70;99.90;;;;;;4997344;28;20026;-81
2021/01/19 06:56:14;;;;;;;233.20;85.83;;;-2.70;99.90;;;;;;4992557;28;20097;-81
2021/01/19 06:58:50;;;;;;;201.13;72.38;;;-2.60;99.90;;;;;;4995833;28;20296;-80
2021/01/19 07:01:23;;;;;;;183.50;66.05;;;-2.60;99.90;;;;;;5019601;28;20022;-80
2021/01/19 07:03:52;;;;;;;;;;;-2.60;99.90;;;;;;4995790;28;20441;-79
2021/01/19 07:06:18;;;;;;;140.77;50.58;;;-2.60;99.90;;;;;;4991922;28;20004;-81
2021/01/19 07:09:18;;;;;;;150.35;59.83;;;-2.50;99.90;;;;;;4997412;28;20018;-81
2021/01/19 07:12:02;;;;;;;169.38;63.45;;;-2.50;99.90;;;;;;4997830;28;20030;-80
2021/01/19 07:14:37;;;;;;;158.48;59.17;;;-2.50;99.90;;;;;;4993872;28;20035;-81
2021/01/19 07:17:09;;;;;;;134.40;52.97;;;-2.40;99.90;;;;;;4992066;28;20528;-81
2021/01/19 07:19:34;;;;;;;155.18;58.85;;;-2.40;99.90;;;;;;4990509;28;20128;-81
2021/01/19 07:22:08;;;;;;;156.13;64.10;;;-2.40;99.90;;;;;;4991030;28;20491;-80
2021/01/19 07:25:00;;;;;;;171.68;59.10;;;-2.40;99.90;;;;;;4990909;28;20026;-81
2021/01/19 07:27:27;;;;;;;131.40;50.60;;;-2.40;99.90;;;;;;4991154;28;20146;-81
2021/01/19 07:29:53;;;;;;;121.05;49.47;;;-2.30;99.90;;;;;;4991602;28;20033;-81
2021/01/19 07:32:24;;;;;;;132.90;53.28;;;-2.30;99.90;;;;;;4976539;28;20046;-81
2021/01/19 07:34:50;;;;;;;109.40;43.03;;;-2.30;99.90;;;;;;4972943;28;20392;-81
2021/01/19 07:37:27;;;;;;;99.65;39.08;;;-2.30;99.90;;;;;;4974114;28;20392;-81
2021/01/19 07:39:53;;;;;;;102.60;40.75;;;-2.30;99.90;;;;;;4989159;28;20109;-81
2021/01/19 07:42:19;;;;;;;85.75;36.58;;;-2.20;99.90;;;;;;4989082;28;20472;-81
2021/01/19 07:44:59;;;;;;;96.28;42.30;;;-2.20;99.90;;;;;;4974121;28;20027;-80
2021/01/19 07:47:34;;;;;;;83.93;36.42;;;-2.20;99.90;;;;;;4974085;28;20023;-81
2021/01/19 07:50:19;;;;;;;94.95;41.20;;;-2.10;99.90;;;;;;4972772;28;20093;-80
2021/01/19 07:52:47;;;;;;;80.13;34.22;;;-2.10;99.90;;;;;;4972911;28;20101;-81
2021/01/19 07:55:13;;;;;;;78.93;36.45;;;-2.00;99.90;;;;;;4972782;28;20114;-81
2021/01/19 07:57:40;;;;;;;86.07;39.70;;;-2.00;99.90;;;;;;4972961;28;20162;-81
2021/01/19 08:00:06;;;;;;;87.15;34.60;;;-2.00;99.90;;;;;;4988823;28;20037;-81
2021/01/19 08:02:32;;;;;;;86.60;37.63;;;-2.00;99.90;;;;;;4988107;28;20025;-81
2021/01/19 08:05:05;;;;;;;80.57;34.05;;;-2.00;99.90;;;;;;4992072;28;20022;-81
2021/01/19 08:07:44;;;;;;;103.80;44.38;;;-1.90;99.90;;;;;;4994109;28;20455;-82
2021/01/19 08:10:27;;;;;;;74.32;32.63;;;-1.90;99.90;;;;;;4996233;28;20446;-81
2021/01/19 08:12:58;;;;;;;81.25;34.05;;;-1.90;99.90;;;;;;4995962;28;20038;-81
2021/01/19 08:15:33;;;;;;;73.80;32.80;;;-1.90;99.90;;;;;;4995841;28;20032;-81
2021/01/19 08:18:01;;;;;;;88.15;37.33;;;-1.80;99.90;;;;;;4995907;28;20041;-82
2021/01/19 08:20:31;;;;;;;243.45;100.63;;;-1.80;99.90;;;;;;4997146;28;20476;-81
2021/01/19 08:23:20;;;;;;;99.32;43.25;;;-1.70;99.90;;;;;;4995777;28;20026;-81
2021/01/19 08:25:46;;;;;;;73.22;32.10;;;-1.70;99.90;;;;;;4997208;28;20045;-81
2021/01/19 08:28:13;;;;;;;66.05;32.83;;;-1.60;99.90;;;;;;4995655;28;20503;-81
2021/01/19 08:30:40;;;;;;;85.57;39.28;;;-1.60;99.90;;;;;;4991186;28;20019;-81
2021/01/19 08:33:06;;;;;;;115.68;53.35;;;-1.60;99.90;;;;;;4977477;28;20023;-82
2021/01/19 08:35:32;;;;;;;82.57;35.97;;;-1.50;99.90;;;;;;4977462;28;20019;-82
2021/01/19 08:38:00;;;;;;;94.22;44.53;;;-1.50;99.90;;;;;;4978005;28;20034;-81
2021/01/19 08:40:31;;;;;;;79.22;34.33;;;-1.50;99.90;;;;;;4977231;28;20477;-82
2021/01/19 08:42:58;;;;;;;86.65;38.92;;;-1.50;99.90;;;;;;4992231;28;20080;-81
2021/01/19 08:45:33;;;;;;;81.28;37.45;;;-1.50;99.90;;;;;;4977247;28;20041;-81
2021/01/19 08:48:01;;;;;;;78.65;34.40;;;-1.40;99.90;;;;;;4977641;28;20034;-82
2021/01/19 08:50:28;;;;;;;71.90;33.75;;;-1.40;99.90;;;;;;4975981;28;20383;-81
2021/01/19 08:52:54;;;;;;;70.13;32.00;;;-1.30;99.90;;;;;;4977134;28;20019;-82
2021/01/19 08:55:24;;;;;;;77.63;37.20;;;-1.30;99.90;;;;;;4977241;28;20019;-81
2021/01/19 08:57:58;;;;;;;81.53;35.38;;;-1.30;99.90;;;;;;4975990;28;20034;-82
2021/01/19 09:00:34;;;;;;;65.85;32.30;;;-1.20;99.90;;;;;;4996248;28;20033;-82
2021/01/19 09:03:11;;;;;;;78.80;35.72;;;-1.20;99.90;;;;;;4995155;28;20026;-81
2021/01/19 09:05:37;;;;;;;72.18;33.50;;;-1.20;99.90;;;;;;4995201;28;20027;-82
2021/01/19 09:08:18;;;;;;;84.75;38.45;;;-1.20;99.90;;;;;;4994999;28;20100;-82
2021/01/19 09:10:45;;;;;;;73.22;30.05;;;-1.10;99.90;;;;;;4996372;28;20026;-82
2021/01/19 09:13:11;;;;;;;71.47;30.65;;;-1.10;99.90;;;;;;5011601;28;20037;-81
2021/01/19 09:15:39;;;;;;;73.80;31.00;;;-1.10;99.90;;;;;;4996142;28;20022;-82
2021/01/19 09:18:09;;;;;;;74.18;28.73;;;-1.20;99.90;;;;;;5011004;28;20034;-81
2021/01/19 09:20:35;;;;;;;78.35;35.35;;;-1.10;99.90;;;;;;4984218;28;20023;-81
2021/01/19 09:23:15;;;;;;;73.85;32.67;;;-1.10;99.90;;;;;;4975736;28;20038;-81
2021/01/19 09:25:43;;;;;;;69.55;31.95;;;-1.10;99.90;;;;;;4975426;28;20038;-81
2021/01/19 09:28:08;;;;;;;72.93;32.70;;;-1.00;99.90;;;;;;4976438;28;20037;-82
2021/01/19 09:30:35;;;;;;;85.88;34.05;;;-1.00;99.90;;;;;;4994633;28;20030;-81
2021/01/19 09:33:09;;;;;;;76.55;33.58;;;-1.00;99.90;;;;;;4977610;28;20488;-82
2021/01/19 09:35:36;;;;;;;66.15;31.30;;;-0.90;99.90;;;;;;4975070;28;20117;-81
2021/01/19 09:38:02;;;;;;;65.72;30.25;;;-0.90;99.90;;;;;;4976406;28;20389;-82
2021/01/19 09:40:35;;;;;;;70.07;31.10;;;-0.90;99.90;;;;;;4981153;28;20427;-82
2021/01/19 09:43:12;;;;;;;69.38;30.52;;;-0.90;99.90;;;;;;4985723;28;20027;-81
2021/01/19 09:45:38;;;;;;;76.13;33.22;;;-0.80;99.90;;;;;;4974864;28;20094;-82
2021/01/19 09:48:06;;;;;;;68.63;31.08;;;-0.80;99.90;;;;;;4992011;28;20026;-82
2021/01/19 09:50:32;;;;;;;85.20;35.97;;;-0.80;99.90;;;;;;4974793;28;20460;-82
2021/01/19 09:52:57;;;;;;;74.68;31.15;;;-0.70;99.90;;;;;;4978003;28;20109;-82
2021/01/19 09:55:29;;;;;;;70.90;32.00;;;-0.70;99.90;;;;;;4979212;28;20425;-82
2021/01/19 09:58:03;;;;;;;75.03;32.85;;;-0.60;99.90;;;;;;4976707;28;20155;-82
2021/01/19 10:00:31;;;;;;;85.07;35.33;;;-0.60;99.90;;;;;;4976295;28;20027;-81
2021/01/19 10:03:08;;;;;;;65.60;30.67;;;-0.50;99.90;;;;;;4990608;28;20070;-82
2021/01/19 10:05:33;;;;;;;67.53;30.80;;;-0.50;99.90;;;;;;4996733;28;20435;-82
2021/01/19 10:07:59;;;;;;;75.57;34.00;;;-0.40;99.90;;;;;;4988845;28;20031;-82
2021/01/19 10:10:24;;;;;;;74.80;33.90;;;-0.40;99.90;;;;;;4977767;28;20027;-82
2021/01/19 10:13:00;;;;;;;67.28;31.50;;;-0.40;99.90;;;;;;4974414;28;20018;-82
2021/01/19 10:15:26;;;;;;;67.47;29.95;;;-0.30;99.90;;;;;;4974312;28;20023;-82
2021/01/19 10:17:57;;;;;;;73.72;31.23;;;-0.20;99.90;;;;;;4982227;28;20039;-82
2021/01/19 10:20:29;;;;;;;74.63;31.20;;;-0.10;99.90;;;;;;4978778;28;20034;-82
2021/01/19 10:22:57;;;;;;;70.60;29.80;;;0.00;99.90;;;;;;4975677;28;20022;-81
2021/01/19 10:25:30;;;;;;;74.07;33.25;;;0.10;99.90;;;;;;4984174;28;20030;-81
2021/01/19 10:28:00;;;;;;;70.13;30.02;;;0.10;99.90;;;;;;4978077;28;20037;-82
2021/01/19 10:30:31;;;;;;;70.88;31.05;;;0.20;99.90;;;;;;4973272;28;20098;-82
2021/01/19 10:32:57;;;;;;;62.67;28.95;;;0.20;99.90;;;;;;4979434;28;20022;-82
2021/01/19 10:35:41;;;;;;;66.25;30.33;;;0.20;99.90;;;;;;5000883;28;20086;-82
2021/01/19 10:38:08;;;;;;;61.08;28.33;;;0.20;99.90;;;;;;4982126;28;20047;-82
2021/01/19 10:40:36;;;;;;;62.90;28.58;;;0.20;99.90;;;;;;4975774;28;20058;-82
2021/01/19 10:43:08;;;;;;;64.95;28.70;;;0.30;99.90;;;;;;4973439;28;20392;-82
2021/01/19 10:45:38;;;;;;;63.72;29.20;;;0.30;99.90;;;;;;4973630;28;20034;-82
2021/01/19 10:48:05;;;;;;;76.65;29.35;;;0.20;99.90;;;;;;4977018;28;20018;-82
2021/01/19 10:50:32;;;;;;;66.22;30.58;;;0.30;99.90;;;;;;4993512;28;20093;-81
2021/01/19 10:53:03;;;;;;;68.13;30.88;;;0.20;99.90;;;;;;4973607;28;20110;-82
2021/01/19 10:55:30;;;;;;;65.38;31.38;;;0.20;99.90;;;;;;5003602;28;20027;-82
2021/01/19 10:58:00;;;;;;;68.03;32.08;;;0.30;99.90;;;;;;4979189;28;20026;-82
2021/01/19 11:00:28;;;;;;;68.85;34.42;;;0.30;99.90;;;;;;4974682;28;20085;-82
2021/01/19 11:02:54;;;;;;;60.03;30.50;;;0.30;99.90;;;;;;4974688;28;20469;-82
2021/01/19 11:05:20;;;;;;;64.97;30.25;;;0.40;99.90;;;;;;4973389;28;20027;-82
2021/01/19 11:07:51;;;;;;;67.25;30.98;;;0.50;99.90;;;;;;4992814;28;20033;-81
2021/01/19 11:10:19;;;;;;;79.43;31.77;;;0.50;99.90;;;;;;4992701;28;20073;-82
2021/01/19 11:12:46;;;;;;;59.70;29.05;;;0.60;99.90;;;;;;4993089;28;20383;-82
2021/01/19 11:15:12;;;;;;;74.40;32.42;;;0.60;99.90;;;;;;4992644;28;20046;-82
2021/01/19 11:17:39;;;;;;;80.32;33.78;;;0.60;99.90;;;;;;4992505;28;20389;-82
2021/01/19 11:20:11;;;;;;;61.47;28.83;;;0.60;99.90;;;;;;4992552;28;20069;-82
2021/01/19 11:22:37;;;;;;;65.72;31.33;;;0.60;99.90;;;;;;4992556;28;20550;-82
2021/01/19 11:25:04;;;;;;;60.78;27.70;;;0.50;99.90;;;;;;4992780;28;20459;-82
2021/01/19 11:27:30;;;;;;;62.65;23.65;;;0.50;99.90;;;;;;4993661;28;20022;-82
2021/01/19 11:29:56;;;;;;;54.90;25.67;;;0.50;99.90;;;;;;4992385;28;20041;-82
2021/01/19 11:32:21;;;;;;;50.20;24.20;;;0.50;99.90;;;;;;4991406;28;20015;-82
2021/01/19 11:34:47;;;;;;;52.38;25.92;;;0.50;99.90;;;;;;4978507;28;20027;-82
2021/01/19 11:37:14;;;;;;;57.28;26.02;;;0.50;99.90;;;;;;4975666;28;20114;-83
2021/01/19 11:39:41;;;;;;;53.58;28.25;;;0.50;99.90;;;;;;4977801;28;20042;-82
2021/01/19 11:42:07;;;;;;;56.47;24.98;;;0.50;99.90;;;;;;4977380;28;20026;-82
2021/01/19 11:44:33;;;;;;;62.78;25.15;;;0.50;99.90;;;;;;4973552;28;20383;-82
2021/01/19 11:46:59;;;;;;;57.85;24.42;;;0.60;99.90;;;;;;4992441;28;20014;-82
2021/01/19 11:49:25;;;;;;;62.28;28.33;;;0.60;99.90;;;;;;4989824;28;20083;-83
2021/01/19 11:51:51;;;;;;;54.03;26.65;;;0.60;99.90;;;;;;4975023;28;20027;-82
2021/01/19 11:54:17;;;;;;;56.53;25.08;;;0.60;99.90;;;;;;4976380;28;20023;-82
2021/01/19 11:56:45;;;;;;;64.13;26.05;;;0.70;99.90;;;;;;4977248;28;20046;-82
2021/01/19 11:59:11;;;;;;;61.08;26.90;;;0.70;99.90;;;;;;4978507;28;20489;-83
2021/01/19 12:01:38;;;;;;;55.45;24.30;;;0.80;99.90;;;;;;4975815;28;20096;-83
2021/01/19 12:04:04;;;;;;;47.72;24.77;;;0.80;99.90;;;;;;4982105;28;20039;-83
2021/01/19 12:06:33;;;;;;;49.15;23.30;;;0.90;99.90;;;;;;4984191;28;20023;-82
2021/01/19 12:08:59;;;;;;;55.85;25.27;;;0.90;99.90;;;;;;4975617;28;20019;-83
2021/01/19 12:11:25;;;;;;;49.03;23.90;;;1.00;99.90;;;;;;5002139;28;20019;-83
2021/01/19 12:13:51;;;;;;;47.30;23.95;;;1.00;99.90;;;;;;4976921;28;20058;-82
2021/01/19 12:16:21;;;;;;;52.08;24.77;;;1.00;99.90;;;;;;4982350;28;20030;-83
2021/01/19 12:18:48;;;;;;;49.50;25.83;;;1.00;99.90;;;;;;4986981;28;20034;-82
2021/01/19 12:21:14;;;;;;;53.60;26.40;;;1.00;99.90;;;;;;4976811;28;20106;-83
2021/01/19 12:23:40;;;;;;;51.13;22.85;;;1.00;99.90;;;;;;4974577;28;20086;-82
2021/01/19 12:26:06;;;;;;;44.35;22.40;;;1.10;99.90;;;;;;4974730;28;20022;-82
2021/01/19 12:28:32;;;;;;;57.75;25.05;;;1.10;99.90;;;;;;4976033;28;20468;-82
2021/01/19 12:30:57;;;;;;;50.22;23.13;;;1.10;99.90;;;;;;4974409;28;20519;-83
2021/01/19 12:33:23;;;;;;;48.22;24.15;;;1.10;99.90;;;;;;4973308;28;20019;-82
2021/01/19 12:35:50;;;;;;;46.45;22.70;;;1.10;99.90;;;;;;4973348;28;20492;-83